Time;durP1;ratioP1;P1;durP2;ratioP2;P2;SDS_P1;SDS_P2;PMS_P1;PMS_P2;Temp;Humidity;BMP_temperature;BMP_pressure;BME280_temperature;BME280_humidity;BME280_pressure;Samples;Min_cycle;Max_cycle;Signal;HPM_P1;HPM_P2
2022/03/05 00:01:48;;;;;;;;;;;22.20;21.20;;;;;;453992;261;1339;-76
2022/03/05 00:03:49;;;;;;;;;;;22.10;21.30;;;;;;454025;261;966;-76
2022/03/05 00:05:51;;;;;;;;;;;22.10;21.30;;;;;;454007;261;1376;-76
2022/03/05 00:07:52;;;;;;;;;;;22.10;21.30;;;;;;453998;261;1324;-76
2022/03/05 00:09:53;;;;;;;;;;;22.10;21.30;;;;;;454028;261;1088;-76
2022/03/05 00:11:55;;;;;;;;;;;22.20;21.20;;;;;;454055;261;1217;-76
2022/03/05 00:13:56;;;;;;;;;;;22.20;21.30;;;;;;454041;261;1049;-76
2022/03/05 00:15:57;;;;;;;;;;;22.20;21.30;;;;;;454043;261;966;-76
2022/03/05 00:17:59;;;;;;;;;;;22.20;21.30;;;;;;453989;261;1038;-76
2022/03/05 00:20:00;;;;;;;;;;;22.20;21.30;;;;;;453987;261;2245;-76
2022/03/05 00:22:02;;;;;;;;;;;22.20;21.20;;;;;;454054;261;1356;-75
2022/03/05 00:24:03;;;;;;;;;;;22.30;21.20;;;;;;453967;261;1467;-76
2022/03/05 00:26:04;;;;;;;;;;;22.30;21.20;;;;;;454127;261;1231;-76
2022/03/05 00:28:05;;;;;;;;;;;22.30;21.20;;;;;;454026;261;1230;-76
2022/03/05 00:30:07;;;;;;;;;;;22.20;21.20;;;;;;454107;261;951;-76
2022/03/05 00:32:08;;;;;;;;;;;22.20;21.20;;;;;;454052;261;1512;-76
2022/03/05 00:34:09;;;;;;;;;;;22.30;21.30;;;;;;454090;261;1349;-76
2022/03/05 00:36:11;;;;;;;;;;;22.20;21.20;;;;;;454003;261;1362;-76
2022/03/05 00:38:12;;;;;;;;;;;22.20;21.30;;;;;;454044;261;1206;-76
2022/03/05 00:40:13;;;;;;;;;;;22.20;21.30;;;;;;454023;261;2200;-76
2022/03/05 00:42:15;;;;;;;;;;;22.20;21.30;;;;;;454046;261;1243;-76
2022/03/05 00:44:16;;;;;;;;;;;22.20;21.30;;;;;;454067;261;971;-76
2022/03/05 00:46:17;;;;;;;;;;;22.30;21.30;;;;;;454018;261;1054;-76
2022/03/05 00:48:19;;;;;;;;;;;22.20;21.30;;;;;;453983;261;1029;-76
2022/03/05 00:50:20;;;;;;;;;;;22.30;21.30;;;;;;454000;261;971;-76
2022/03/05 00:52:22;;;;;;;;;;;22.20;21.30;;;;;;454005;261;1265;-76
2022/03/05 00:54:23;;;;;;;;;;;22.20;21.20;;;;;;454034;261;1188;-76
2022/03/05 00:56:24;;;;;;;;;;;22.20;21.20;;;;;;454068;261;977;-76
2022/03/05 00:58:26;;;;;;;;;;;22.20;21.30;;;;;;454039;261;1058;-76
2022/03/05 01:00:27;;;;;;;;;;;22.20;21.30;;;;;;454024;261;2145;-75
2022/03/05 01:02:30;;;;;;;;;;;22.30;21.30;;;;;;454036;261;1381;-75
2022/03/05 01:04:30;;;;;;;;;;;22.20;21.30;;;;;;454042;261;1469;-75
2022/03/05 01:06:31;;;;;;;;;;;22.20;21.30;;;;;;454030;261;1273;-75
2022/03/05 01:08:33;;;;;;;;;;;22.10;21.30;;;;;;453988;261;1146;-75
2022/03/05 01:10:34;;;;;;;;;;;22.10;21.30;;;;;;453958;261;1151;-76
2022/03/05 01:12:35;;;;;;;;;;;22.10;21.30;;;;;;454008;261;1229;-75
2022/03/05 01:14:37;;;;;;;;;;;22.20;21.30;;;;;;454051;261;1008;-75
2022/03/05 01:16:38;;;;;;;;;;;22.20;21.20;;;;;;454018;261;1219;-75
2022/03/05 01:18:39;;;;;;;;;;;22.20;21.20;;;;;;454042;261;2141;-75
2022/03/05 01:20:41;;;;;;;;;;;22.10;21.30;;;;;;454056;261;1061;-75
2022/03/05 01:22:42;;;;;;;;;;;22.10;21.30;;;;;;454120;261;968;-75
2022/03/05 01:24:43;;;;;;;;;;;22.10;21.30;;;;;;454097;261;1182;-75
2022/03/05 01:26:45;;;;;;;;;;;22.10;21.30;;;;;;454062;261;1098;-75
2022/03/05 01:28:46;;;;;;;;;;;22.10;21.30;;;;;;453998;261;986;-75
2022/03/05 01:30:47;;;;;;;;;;;22.10;21.30;;;;;;453974;261;1002;-75
2022/03/05 01:32:49;;;;;;;;;;;22.20;21.20;;;;;;454031;261;989;-75
2022/03/05 01:34:50;;;;;;;;;;;22.10;21.20;;;;;;454068;261;1015;-75
2022/03/05 01:36:51;;;;;;;;;;;22.10;21.30;;;;;;454014;261;1138;-75
2022/03/05 01:38:53;;;;;;;;;;;22.20;21.20;;;;;;454043;261;2217;-75
2022/03/05 01:40:54;;;;;;;;;;;22.20;21.30;;;;;;453987;261;995;-76
2022/03/05 01:42:56;;;;;;;;;;;22.20;21.20;;;;;;453942;261;1103;-76
2022/03/05 01:44:57;;;;;;;;;;;22.20;21.20;;;;;;454015;261;993;-76
2022/03/05 01:46:58;;;;;;;;;;;22.30;21.20;;;;;;453950;261;1224;-76
2022/03/05 01:48:59;;;;;;;;;;;22.30;21.20;;;;;;453988;261;1010;-76
2022/03/05 01:51:01;;;;;;;;;;;22.20;21.10;;;;;;453995;261;1125;-76
2022/03/05 01:53:02;;;;;;;;;;;22.20;21.20;;;;;;454025;261;1299;-76
2022/03/05 01:55:03;;;;;;;;;;;22.20;21.20;;;;;;454038;261;1142;-76
2022/03/05 01:57:05;;;;;;;;;;;22.30;21.20;;;;;;454024;261;1200;-76
2022/03/05 01:59:06;;;;;;;;;;;22.30;21.20;;;;;;454027;261;2148;-75
2022/03/05 02:01:07;;;;;;;;;;;22.30;21.20;;;;;;454024;261;1362;-75
2022/03/05 02:03:09;;;;;;;;;;;22.20;21.20;;;;;;453992;261;1119;-75
2022/03/05 02:05:10;;;;;;;;;;;22.30;21.20;;;;;;454023;261;967;-75
2022/03/05 02:07:11;;;;;;;;;;;22.20;21.20;;;;;;453929;261;1265;-75
2022/03/05 02:09:12;;;;;;;;;;;22.10;21.30;;;;;;453957;261;1172;-76
2022/03/05 02:11:14;;;;;;;;;;;22.20;21.30;;;;;;453878;261;1219;-76
2022/03/05 02:13:15;;;;;;;;;;;22.20;21.20;;;;;;454012;261;1263;-76
2022/03/05 02:15:16;;;;;;;;;;;22.20;21.20;;;;;;454103;261;969;-76
2022/03/05 02:17:18;;;;;;;;;;;22.20;21.20;;;;;;453871;261;1282;-76
2022/03/05 02:19:19;;;;;;;;;;;22.20;21.20;;;;;;454036;261;2208;-76
2022/03/05 02:21:20;;;;;;;;;;;22.10;21.20;;;;;;453930;261;1218;-76
2022/03/05 02:23:22;;;;;;;;;;;22.10;21.20;;;;;;454058;261;1030;-76
2022/03/05 02:25:23;;;;;;;;;;;22.20;21.20;;;;;;454042;261;1195;-76
2022/03/05 02:27:25;;;;;;;;;;;22.20;21.20;;;;;;453964;261;1487;-76
2022/03/05 02:29:26;;;;;;;;;;;22.20;21.20;;;;;;454074;261;967;-77
2022/03/05 02:31:27;;;;;;;;;;;22.20;21.20;;;;;;453933;261;1334;-76
2022/03/05 02:33:28;;;;;;;;;;;22.30;21.20;;;;;;453986;261;1060;-76
2022/03/05 02:35:30;;;;;;;;;;;22.30;21.20;;;;;;453960;261;1000;-76
2022/03/05 02:37:31;;;;;;;;;;;22.30;21.20;;;;;;454045;261;1175;-76
2022/03/05 02:39:32;;;;;;;;;;;22.30;21.20;;;;;;454108;261;2207;-76
2022/03/05 02:41:34;;;;;;;;;;;22.30;21.20;;;;;;454014;261;1014;-75
2022/03/05 02:43:35;;;;;;;;;;;22.20;21.20;;;;;;454148;261;1216;-75
2022/03/05 02:45:36;;;;;;;;;;;22.20;21.20;;;;;;454074;261;1050;-75
2022/03/05 02:47:38;;;;;;;;;;;22.30;21.10;;;;;;454027;261;1222;-75
2022/03/05 02:49:39;;;;;;;;;;;22.30;21.20;;;;;;454095;261;960;-76
2022/03/05 02:51:40;;;;;;;;;;;22.30;21.10;;;;;;453960;261;1311;-76
2022/03/05 02:53:42;;;;;;;;;;;22.20;21.10;;;;;;454089;261;1241;-76
2022/03/05 02:55:43;;;;;;;;;;;22.30;21.20;;;;;;454078;261;1171;-76
2022/03/05 02:57:44;;;;;;;;;;;22.20;21.10;;;;;;454043;261;1153;-76
2022/03/05 02:59:46;;;;;;;;;;;22.30;21.10;;;;;;454001;261;2200;-76
2022/03/05 03:01:47;;;;;;;;;;;22.30;21.10;;;;;;453909;261;1160;-76
2022/03/05 03:03:48;;;;;;;;;;;22.20;21.10;;;;;;454026;261;998;-76
2022/03/05 03:05:50;;;;;;;;;;;22.30;21.10;;;;;;453990;261;1386;-76
2022/03/05 03:07:51;;;;;;;;;;;22.30;21.10;;;;;;453995;261;1478;-76
2022/03/05 03:09:52;;;;;;;;;;;22.30;21.10;;;;;;453961;261;1191;-75
2022/03/05 03:11:54;;;;;;;;;;;22.20;21.10;;;;;;453939;261;1359;-76
2022/03/05 03:13:55;;;;;;;;;;;22.20;21.10;;;;;;454084;261;976;-76
2022/03/05 03:15:56;;;;;;;;;;;22.30;21.10;;;;;;454000;261;1356;-76
2022/03/05 03:17:58;;;;;;;;;;;22.30;21.10;;;;;;453989;261;1101;-76
2022/03/05 03:19:59;;;;;;;;;;;22.30;21.10;;;;;;454013;261;2197;-76
2022/03/05 03:22:00;;;;;;;;;;;22.30;21.10;;;;;;453917;261;1178;-76
2022/03/05 03:24:02;;;;;;;;;;;22.30;21.20;;;;;;453970;261;1021;-76
2022/03/05 03:26:03;;;;;;;;;;;22.20;21.20;;;;;;453946;261;1326;-76
2022/03/05 03:28:04;;;;;;;;;;;22.20;21.20;;;;;;454040;261;1204;-76
2022/03/05 03:30:06;;;;;;;;;;;22.20;21.20;;;;;;454057;261;1147;-76
2022/03/05 03:32:07;;;;;;;;;;;22.20;21.20;;;;;;453995;261;1157;-76
2022/03/05 03:34:08;;;;;;;;;;;22.20;21.20;;;;;;454057;261;1156;-75
2022/03/05 03:36:10;;;;;;;;;;;22.10;21.20;;;;;;454008;261;1325;-75
2022/03/05 03:38:11;;;;;;;;;;;22.20;21.20;;;;;;454079;261;1251;-75
2022/03/05 03:40:12;;;;;;;;;;;22.20;21.20;;;;;;454024;261;2687;-76
2022/03/05 03:42:14;;;;;;;;;;;22.10;21.20;;;;;;453869;261;1233;-76
2022/03/05 03:44:15;;;;;;;;;;;22.10;21.30;;;;;;454096;261;1481;-76
2022/03/05 03:46:16;;;;;;;;;;;22.10;21.30;;;;;;454024;261;1235;-76
2022/03/05 03:48:18;;;;;;;;;;;22.10;21.30;;;;;;454010;261;1154;-76
2022/03/05 03:50:19;;;;;;;;;;;22.10;21.20;;;;;;454066;261;1058;-76
2022/03/05 03:52:20;;;;;;;;;;;22.20;21.20;;;;;;454060;261;1171;-76
2022/03/05 03:54:22;;;;;;;;;;;22.20;21.20;;;;;;454038;261;972;-76
2022/03/05 03:56:23;;;;;;;;;;;22.30;21.20;;;;;;453984;261;1714;-76
2022/03/05 03:58:24;;;;;;;;;;;22.20;21.20;;;;;;454023;261;1090;-76
2022/03/05 04:00:26;;;;;;;;;;;22.20;21.30;;;;;;454029;261;2200;-75
2022/03/05 04:02:27;;;;;;;;;;;22.20;21.20;;;;;;453969;261;1133;-75
2022/03/05 04:04:28;;;;;;;;;;;22.10;21.20;;;;;;454072;261;983;-76
2022/03/05 04:08:41;;;;;;;;;;;22.10;21.30;;;;;;453950;261;1112;-76
2022/03/05 04:08:43;;;;;;;;;;;22.10;21.30;;;;;;453960;261;1099;-76
2022/03/05 04:10:44;;;;;;;;;;;22.10;21.30;;;;;;453941;261;1191;-75
2022/03/05 04:12:46;;;;;;;;;;;22.10;21.30;;;;;;454038;261;1175;-76
2022/03/05 04:14:47;;;;;;;;;;;21.90;21.40;;;;;;454116;261;964;-76
2022/03/05 04:16:48;;;;;;;;;;;21.90;21.40;;;;;;454018;261;1320;-76
2022/03/05 04:18:50;;;;;;;;;;;21.90;21.40;;;;;;454038;261;972;-76
2022/03/05 04:20:51;;;;;;;;;;;22.00;21.40;;;;;;454019;261;2157;-76
2022/03/05 04:22:52;;;;;;;;;;;22.00;21.40;;;;;;453984;261;1023;-76
2022/03/05 04:24:54;;;;;;;;;;;22.10;21.40;;;;;;453993;261;1072;-76
2022/03/05 04:26:55;;;;;;;;;;;22.10;21.40;;;;;;453975;261;1128;-76
2022/03/05 04:28:56;;;;;;;;;;;22.00;21.40;;;;;;454002;261;1121;-76
2022/03/05 04:30:58;;;;;;;;;;;22.10;21.40;;;;;;453982;261;1086;-76
2022/03/05 04:32:59;;;;;;;;;;;22.00;21.30;;;;;;453962;261;1124;-76
2022/03/05 04:35:00;;;;;;;;;;;22.00;21.40;;;;;;454096;261;978;-76
2022/03/05 04:37:02;;;;;;;;;;;22.00;21.40;;;;;;453973;261;1132;-76
2022/03/05 04:39:03;;;;;;;;;;;22.10;21.40;;;;;;454007;261;991;-75
2022/03/05 04:41:05;;;;;;;;;;;22.00;21.40;;;;;;453959;261;2204;-76
2022/03/05 04:43:06;;;;;;;;;;;22.00;21.50;;;;;;454039;261;1589;-76
2022/03/05 04:45:08;;;;;;;;;;;22.10;21.40;;;;;;453998;261;1090;-76
2022/03/05 04:47:08;;;;;;;;;;;22.10;21.30;;;;;;453994;261;1595;-76
2022/03/05 04:49:10;;;;;;;;;;;22.10;21.40;;;;;;454024;261;1039;-76
2022/03/05 04:51:11;;;;;;;;;;;22.10;21.40;;;;;;454068;261;1371;-75
2022/03/05 04:53:13;;;;;;;;;;;22.10;21.40;;;;;;454010;261;1064;-75
2022/03/05 04:55:14;;;;;;;;;;;22.00;21.40;;;;;;454009;261;984;-75
2022/03/05 04:57:15;;;;;;;;;;;22.00;21.40;;;;;;454002;261;1248;-76
2022/03/05 04:59:17;;;;;;;;;;;22.00;21.50;;;;;;454021;261;1131;-76
2022/03/05 05:01:18;;;;;;;;;;;22.00;21.50;;;;;;453937;261;2196;-76
2022/03/05 05:03:19;;;;;;;;;;;22.00;21.40;;;;;;453926;261;1135;-76
2022/03/05 05:05:21;;;;;;;;;;;22.10;21.40;;;;;;453977;261;1169;-76
2022/03/05 05:07:22;;;;;;;;;;;22.10;21.40;;;;;;454010;261;1194;-75
2022/03/05 05:09:23;;;;;;;;;;;22.10;21.40;;;;;;454076;261;1102;-76
2022/03/05 05:11:25;;;;;;;;;;;22.10;21.40;;;;;;454058;261;1175;-75
2022/03/05 05:13:26;;;;;;;;;;;22.10;21.40;;;;;;453989;261;1121;-75
2022/03/05 05:15:28;;;;;;;;;;;22.10;21.40;;;;;;454060;261;1010;-76
2022/03/05 05:17:29;;;;;;;;;;;22.00;21.50;;;;;;453980;261;1134;-76
2022/03/05 05:19:30;;;;;;;;;;;21.90;21.50;;;;;;454054;261;1042;-76
2022/03/05 05:21:32;;;;;;;;;;;22.10;21.50;;;;;;454054;261;2196;-76
2022/03/05 05:23:33;;;;;;;;;;;22.00;21.50;;;;;;454077;261;1082;-76
2022/03/05 05:25:34;;;;;;;;;;;21.90;21.50;;;;;;454048;261;956;-76
2022/03/05 05:27:36;;;;;;;;;;;22.00;21.50;;;;;;454033;261;1353;-76
2022/03/05 05:29:37;;;;;;;;;;;22.00;21.50;;;;;;454046;261;950;-75
2022/03/05 05:31:39;;;;;;;;;;;22.00;21.50;;;;;;453971;261;1205;-75
2022/03/05 05:33:44;;;;;;;;;;;21.90;21.50;;;;;;454016;261;1098;-76
2022/03/05 05:35:41;;;;;;;;;;;22.00;21.50;;;;;;454031;261;1459;-76
2022/03/05 05:37:43;;;;;;;;;;;22.00;21.50;;;;;;454062;261;1222;-76
2022/03/05 05:39:44;;;;;;;;;;;22.00;21.60;;;;;;454055;261;1064;-76
2022/03/05 05:41:45;;;;;;;;;;;22.00;21.60;;;;;;454051;261;2189;-76
2022/03/05 05:43:47;;;;;;;;;;;21.90;21.60;;;;;;454017;261;1155;-75
2022/03/05 05:45:48;;;;;;;;;;;21.80;21.60;;;;;;454041;261;1266;-75
2022/03/05 05:47:49;;;;;;;;;;;21.30;21.90;;;;;;454028;261;1125;-75
2022/03/05 05:49:51;;;;;;;;;;;21.00;22.10;;;;;;454070;261;995;-75
2022/03/05 05:51:52;;;;;;;;;;;20.80;22.30;;;;;;454050;261;1221;-75
2022/03/05 05:53:53;;;;;;;;;;;20.60;22.40;;;;;;453975;261;976;-76
2022/03/05 05:55:55;;;;;;;;;;;20.50;22.50;;;;;;453952;261;1146;-76
2022/03/05 05:57:56;;;;;;;;;;;20.40;22.60;;;;;;453930;261;1377;-76
2022/03/05 05:59:57;;;;;;;;;;;20.40;22.60;;;;;;454007;261;990;-76
2022/03/05 06:01:59;;;;;;;;;;;20.30;22.70;;;;;;453980;261;2185;-76
2022/03/05 06:04:00;;;;;;;;;;;20.30;22.70;;;;;;454042;261;979;-75
2022/03/05 06:06:01;;;;;;;;;;;20.30;22.70;;;;;;453981;263;1140;-75
2022/03/05 06:08:03;;;;;;;;;;;20.20;22.80;;;;;;454024;261;1058;-76
2022/03/05 06:10:04;;;;;;;;;;;20.30;22.80;;;;;;453989;261;972;-75
2022/03/05 06:12:05;;;;;;;;;;;20.20;22.80;;;;;;453963;261;1225;-75
2022/03/05 06:14:07;;;;;;;;;;;20.30;22.80;;;;;;454065;261;1111;-75
2022/03/05 06:16:08;;;;;;;;;;;20.30;22.80;;;;;;454070;261;989;-75
2022/03/05 06:18:09;;;;;;;;;;;20.20;22.80;;;;;;453958;261;1031;-76
2022/03/05 06:20:11;;;;;;;;;;;20.20;22.80;;;;;;454010;261;975;-75
2022/03/05 06:22:12;;;;;;;;;;;20.20;22.80;;;;;;454025;261;2133;-75
2022/03/05 06:24:13;;;;;;;;;;;20.30;22.80;;;;;;454109;261;1111;-75
2022/03/05 06:26:15;;;;;;;;;;;20.30;22.80;;;;;;454040;261;1023;-75
2022/03/05 06:28:16;;;;;;;;;;;20.30;22.80;;;;;;454076;261;1183;-75
2022/03/05 06:30:17;;;;;;;;;;;20.30;22.80;;;;;;453985;261;1066;-75
2022/03/05 06:32:19;;;;;;;;;;;20.30;22.80;;;;;;453984;261;1301;-75
2022/03/05 06:34:20;;;;;;;;;;;20.30;22.80;;;;;;453985;261;949;-75
2022/03/05 06:36:21;;;;;;;;;;;20.30;22.80;;;;;;453993;261;1411;-75
2022/03/05 06:38:23;;;;;;;;;;;20.30;22.80;;;;;;454051;261;1163;-75
2022/03/05 06:40:24;;;;;;;;;;;20.30;22.80;;;;;;454089;261;1103;-75
2022/03/05 06:42:25;;;;;;;;;;;20.20;22.80;;;;;;454032;261;2188;-75
2022/03/05 06:44:27;;;;;;;;;;;20.30;22.90;;;;;;454123;261;1133;-75
2022/03/05 06:46:28;;;;;;;;;;;20.20;22.80;;;;;;454022;261;1144;-75
2022/03/05 06:48:29;;;;;;;;;;;20.20;22.90;;;;;;453987;261;1220;-75
2022/03/05 06:50:31;;;;;;;;;;;20.20;22.90;;;;;;453970;261;1024;-75
2022/03/05 06:52:32;;;;;;;;;;;20.20;22.90;;;;;;453920;261;1207;-75
2022/03/05 06:54:33;;;;;;;;;;;20.20;22.90;;;;;;454041;261;1049;-75
2022/03/05 06:56:35;;;;;;;;;;;20.20;23.00;;;;;;454000;261;1168;-76
2022/03/05 06:58:36;;;;;;;;;;;20.20;23.00;;;;;;454083;261;1217;-76
2022/03/05 07:00:37;;;;;;;;;;;20.20;23.10;;;;;;454042;261;1026;-75
2022/03/05 07:02:39;;;;;;;;;;;20.20;23.10;;;;;;453995;261;2121;-75
2022/03/05 07:04:40;;;;;;;;;;;20.20;23.10;;;;;;454060;261;973;-75
2022/03/05 07:06:42;;;;;;;;;;;20.20;23.10;;;;;;454028;261;1227;-75
2022/03/05 07:08:43;;;;;;;;;;;20.20;23.10;;;;;;454087;261;985;-75
2022/03/05 07:10:44;;;;;;;;;;;20.20;23.10;;;;;;454058;261;1121;-75
2022/03/05 07:23:17;;;;;;;;;;;20.20;23.20;;;;;;450334;264;2242;-75
2022/03/05 07:25:18;;;;;;;;;;;20.20;23.30;;;;;;450479;263;1282;-75
2022/03/05 07:27:20;;;;;;;;;;;20.20;23.30;;;;;;450434;262;1208;-75
2022/03/05 07:29:21;;;;;;;;;;;20.10;23.30;;;;;;450534;263;970;-75
2022/03/05 07:31:22;;;;;;;;;;;20.20;23.30;;;;;;450548;263;1196;-75
2022/03/05 07:33:24;;;;;;;;;;;20.20;23.30;;;;;;450529;262;1031;-75
2022/03/05 07:35:25;;;;;;;;;;;20.20;23.30;;;;;;450567;263;1043;-75
2022/03/05 07:37:26;;;;;;;;;;;20.30;23.30;;;;;;450406;263;1132;-75
2022/03/05 07:39:28;;;;;;;;;;;20.50;23.20;;;;;;450526;263;1056;-75
2022/03/05 07:41:29;;;;;;;;;;;20.80;23.00;;;;;;450415;262;2198;-75
2022/03/05 07:43:30;;;;;;;;;;;21.10;22.80;;;;;;450433;263;1216;-76
2022/03/05 07:45:32;;;;;;;;;;;21.40;22.70;;;;;;450524;262;1442;-76
2022/03/05 07:47:33;;;;;;;;;;;21.40;22.50;;;;;;450400;262;1206;-76
2022/03/05 07:49:34;;;;;;;;;;;21.60;22.50;;;;;;450562;263;1074;-76
2022/03/05 07:51:36;;;;;;;;;;;21.70;22.50;;;;;;450541;262;1275;-76
